x

Central Caribbean - 210 Nm Sse Of Kingston, Jamaica (42058) Wave Buoy

1:50am - Wed 1st Jun 2016 All times are EST. -5 hours from GMT.

  • Sig Wave height 4.9ft
  • Swell Direction
  • Peak Period 7s
  • Average Period 5s
  • Wind
    20mph, 25mph gusts
  • Sea Temp 83°f
  • 空気 Temp 83°f
  • Sea Pressure 1010.2mb
  • Central Caribbean - 210 Nm Sse Of Kingston, Jamaica
  • Central Caribbean - 210 Nm Sse Of Kingston, Jamaica

More Historic Weather Station data

Upgrade to MSW Pro to gain access to the past 30 days of data for over 8000 Wavebouys and Weather Stations around the globe.

Join Pro

Comparision Forecast

View Surf forecast
   
Wed 06/01 1:50am 5ft 7s 5s 20 25 mph 1010.2mb 83f 83f
12:50am 5.5ft 7s 5s 20 22 mph 1010.9mb 83f 83f
Tue 05/31 11:50pm 5ft 7s 5s 18 22 mph 1011.7mb 83f 83f
10:50pm 5ft 7s 5s 20 25 mph 1012mb 83f 83f
9:50pm 4.5ft 7s 5s 18 22 mph 1012mb 83f 83f
8:50pm 4.5ft 6s 5s 20 22 mph 1011.5mb 83f 83f
7:50pm 4.5ft 7s 5s 18 22 mph 1010.7mb 83f 83f
6:50pm 4.5ft 7s 5s 18 20 mph 1010.1mb 83f 83f
5:50pm 4.5ft 6s 5s 18 20 mph 1009.7mb 83f 83f
4:50pm 4.5ft 6s 5s 18 20 mph 1009.3mb 83f 83f
3:50pm 4.5ft 6s 5s 18 20 mph 1009.3mb 83f 84f
2:50pm 5ft 6s 5s 18 20 mph 1009.9mb 83f 83f
1:50pm 5ft 6s 5s 18 22 mph 1010.5mb 83f 83f
12:50pm 5ft 6s 5s 18 20 mph 1011.2mb 83f 83f
11:50am 5ft 6s 5s 18 20 mph 1011.6mb 83f 83f
10:50am 5ft 6s 5s 18 20 mph 1011.8mb 83f 83f
9:50am 5.5ft 6s 5s 18 20 mph 1012.1mb 83f 83f
8:50am 5ft 6s 5s 20 25 mph 1011.5mb 83f 83f
7:50am 5ft 6s 5s 18 22 mph 1011.2mb 83f 83f
6:50am 4.5ft 6s  -  20 25 mph 1010.7mb 83f 83f
5:50am 4.5ft 6s 5s 18 22 mph 1010.4mb 83f 83f
4:50am 4.5ft 6s 5s 20 22 mph 1010.3mb 83f 83f
3:50am 4.5ft 6s 5s 20 25 mph 1010.1mb 83f 83f
2:50am 4.5ft 5s 5s 18 22 mph 1010.4mb 83f 83f
1:50am 4.5ft 6s 5s 20 22 mph 1010.5mb 83f 83f
12:50am 5ft 5s 5s 20 25 mph 1010.8mb 83f 83f
Mon 05/30 11:50pm 4.5ft 5s 5s 20 22 mph 1011.4mb 83f 83f
10:50pm 4.5ft 6s 5s 18 20 mph 1012.3mb 83f 83f
9:50pm 4.5ft 8s 5s 18 20 mph 1012.1mb 83f 83f
8:50pm 4.5ft 8s 5s 18 22 mph 1011.4mb 83f 83f
7:50pm 4.5ft 8s 5s 18 22 mph 1010.9mb 83f 83f
6:50pm 4.5ft 8s 5s 20 22 mph 1010.6mb 83f 83f
5:50pm 4.5ft 6s 5s 16 20 mph 1010mb 83f 83f
4:50pm 4.5ft 7s 5s 16 18 mph 1009.3mb 83f 82f
3:50pm 5ft 6s 5s 4 7 mph 1010.6mb 83f 82f
2:50pm 5ft 8s 6s 11 13 mph 1011.1mb 83f 81f
1:50pm 5ft 6s 5s 7 11 mph 1012.3mb 83f 81f
12:50pm 5.5ft 8s 6s 13 18 mph 1013mb 83f 82f
11:50am 5.5ft 6s 5s 16 18 mph 1013.5mb 83f 83f
10:50am 5.5ft 8s 5s 16 20 mph 1013.7mb 83f 82f
9:50am 6ft 8s 5s 18 20 mph 1013.1mb 83f 81f
8:50am 6ft 9s 6s 20 22 mph 1013mb 83f 83f
7:50am 5ft 8s 5s 20 25 mph 1012.2mb 83f 83f
6:50am 5ft 8s 5s 18 20 mph 1011.9mb 83f 81f
5:50am 5ft 8s 5s 20 22 mph 1011.7mb 83f 82f
4:50am 5ft 8s 5s 18 22 mph 1011.3mb 83f 83f
3:50am 5ft 8s 5s 18 20 mph 1010.9mb 83f 83f
2:50am 5ft 8s 5s 18 20 mph 1011.1mb 83f 83f
1:50am 5ft 8s 5s 18 22 mph 1011.3mb 83f 83f
12:50am 5ft 7s 5s 18 22 mph 1011.9mb 83f 83f
Sun 05/29 11:50pm 5ft 7s 5s 18 20 mph 1012.8mb 83f 83f
10:50pm 5ft 7s 5s 18 22 mph 1013.5mb 83f 83f
9:50pm 4.5ft 7s 5s 18 22 mph 1013.6mb 83f 83f
8:50pm 4.5ft 7s 5s 18 20 mph 1013.6mb 83f 83f
7:50pm 4ft 7s 5s 13 16 mph 1013.5mb 83f 83f
6:50pm 4.5ft 7s 5s 16 18 mph 1012.9mb 83f 83f
5:50pm 4.5ft 7s 5s 13 16 mph 1012.3mb 84f 83f
4:50pm 4.5ft 7s 5s 16 18 mph 1011.8mb 84f 83f
3:50pm 4.5ft 7s 5s 16 18 mph 1011.5mb 84f 83f
2:50pm 4.5ft 5s 5s 20 25 mph 1011.8mb 84f 83f
1:50pm 4.5ft 6s 5s 16 18 mph 1013mb 84f 83f
12:50pm 4.5ft 6s 5s 18 20 mph 1013.6mb 84f 83f
11:50am 4.5ft 6s 5s 18 20 mph 1014.4mb 83f 83f
10:50am 4.5ft 7s 5s 18 20 mph 1015.1mb 83f 83f
9:50am 4.5ft 7s 5s 16 20 mph 1014.9mb 83f 83f
8:50am 4.5ft 7s 5s 13 18 mph 1014.4mb 83f 83f
7:50am 4.5ft 6s 5s 13 16 mph 1014.1mb 83f 83f
6:50am 4.5ft 7s 5s 16 20 mph 1013.2mb 83f 83f
5:50am 4.5ft 7s 5s 16 18 mph 1012.7mb 83f 83f
4:50am 4.5ft 7s 5s 18 20 mph 1012mb 83f 83f
3:50am 4.5ft 7s 5s 18 20 mph 1012.3mb 83f 83f
2:50am 4.5ft 7s 5s 18 22 mph 1012.3mb 83f 83f
1:50am 4.5ft 7s 5s 18 20 mph 1012.9mb 83f 83f
12:50am 4.5ft 6s 5s 16 18 mph 1013.5mb 83f 83f
Sat 05/28 11:50pm 4.5ft 7s 5s 16 20 mph 1014.1mb 83f 83f
10:50pm 4.5ft 7s 5s 16 18 mph 1014.3mb 83f 83f
9:50pm 4.5ft 7s 5s 18 20 mph 1014.4mb 83f 83f
8:50pm 4.5ft 7s 5s 16 20 mph 1014mb 83f 83f
7:50pm 4.5ft 6s 5s 16 20 mph 1013.3mb 83f 83f
6:50pm 4.5ft 7s 5s 16 18 mph 1012.4mb 83f 83f
5:50pm 4.5ft 6s 5s 16 18 mph 1011.9mb 84f 83f
4:50pm 4ft 7s 5s 16 18 mph 1011.6mb 84f 84f
3:50pm 4.5ft 7s 5s 18 20 mph 1011.5mb 84f 84f
2:50pm 5ft 7s 5s 16 20 mph 1011.9mb 84f 84f
1:50pm 5ft 7s 5s 18 22 mph 1012.1mb 84f 84f
12:50pm 4.5ft 7s 5s 18 20 mph 1012.5mb 83f 83f
11:50am 4.5ft 7s 5s 16 18 mph 1013mb 83f 83f
10:50am 4.5ft 7s 5s 16 18 mph 1013.2mb 83f 83f
9:50am 5ft 7s 5s 16 20 mph 1013.6mb 83f 83f
8:50am 5ft 7s 5s 18 20 mph 1013.5mb 83f 83f
7:50am 5ft 7s 5s 18 20 mph 1012.8mb 83f 83f